Time;durP1;ratioP1;P1;durP2;ratioP2;P2;SDS_P1;SDS_P2;PMS_P1;PMS_P2;Temp;Humidity;BMP_temperature;BMP_pressure;BME280_temperature;BME280_humidity;BME280_pressure;Samples;Min_cycle;Max_cycle;Signal;HPM_P1;HPM_P2
2022/01/19 00:00:19;;;;;;;1.27;1.27;;;16.60;64.80;;;;;;5087617;28;44296;-71
2022/01/19 00:02:48;;;;;;;1.10;1.10;;;16.50;64.80;;;;;;5069939;28;44155;-70
2022/01/19 00:05:17;;;;;;;1.20;1.20;;;16.50;64.80;;;;;;5052985;28;43811;-71
2022/01/19 00:07:45;;;;;;;1.03;1.03;;;16.50;64.90;;;;;;5069609;28;43977;-71
2022/01/19 00:10:18;;;;;;;1.00;1.00;;;16.50;65.00;;;;;;5070393;28;44068;-71
2022/01/19 00:12:47;;;;;;;1.20;1.20;;;16.40;64.90;;;;;;5053594;28;44103;-71
2022/01/19 00:15:16;;;;;;;1.40;1.40;;;16.40;65.00;;;;;;5069480;28;44144;-70
2022/01/19 00:17:44;;;;;;;1.13;1.13;;;16.40;65.20;;;;;;5086338;28;43914;-71
2022/01/19 00:20:13;;;;;;;1.33;1.30;;;16.50;65.10;;;;;;5087199;27;44244;-71
2022/01/19 00:22:43;;;;;;;1.17;1.17;;;16.70;64.80;;;;;;5086169;28;44069;-70
2022/01/19 00:25:12;;;;;;;1.10;1.10;;;16.90;64.20;;;;;;5069299;28;43409;-70
2022/01/19 00:27:40;;;;;;;1.10;1.10;;;17.10;63.70;;;;;;5052732;28;43933;-71
2022/01/19 00:30:10;;;;;;;1.20;1.20;;;17.10;63.00;;;;;;5086427;28;44007;-71
2022/01/19 00:32:39;;;;;;;1.17;1.17;;;17.10;62.90;;;;;;5069204;28;43908;-71
2022/01/19 00:35:09;;;;;;;1.30;1.30;;;17.10;63.00;;;;;;5086294;28;43435;-70
2022/01/19 00:37:37;;;;;;;1.00;1.00;;;17.00;63.30;;;;;;5086112;28;43348;-70
2022/01/19 00:40:08;;;;;;;1.17;1.17;;;16.90;63.50;;;;;;5086411;28;44044;-71
2022/01/19 00:42:36;;;;;;;1.20;1.20;;;16.80;63.70;;;;;;5085746;28;45309;-70
2022/01/19 00:45:07;;;;;;;1.07;1.07;;;16.70;63.90;;;;;;5086383;28;44004;-71
2022/01/19 00:47:36;;;;;;;1.17;1.17;;;16.70;64.10;;;;;;5085951;27;43357;-70
2022/01/19 00:50:07;;;;;;;1.20;1.20;;;16.60;64.20;;;;;;5086331;28;44019;-70
2022/01/19 00:52:36;;;;;;;1.10;1.10;;;16.60;64.50;;;;;;5069075;28;43994;-71
2022/01/19 00:55:05;;;;;;;1.13;1.13;;;16.60;64.50;;;;;;5069067;28;44006;-70
2022/01/19 00:57:33;;;;;;;1.20;1.20;;;16.60;64.80;;;;;;5063003;27;43893;-71
2022/01/19 01:00:04;;;;;;;1.20;1.20;;;16.60;64.80;;;;;;5063524;28;43849;-71
2022/01/19 01:02:32;;;;;;;1.23;1.23;;;16.70;64.40;;;;;;5068739;28;44094;-70
2022/01/19 01:05:02;;;;;;;1.10;1.10;;;16.80;64.00;;;;;;5085692;28;43979;-71
2022/01/19 01:07:33;;;;;;;1.10;1.10;;;16.80;63.90;;;;;;5052108;28;43862;-70
2022/01/19 01:10:02;;;;;;;1.20;1.20;;;16.70;63.90;;;;;;5069924;28;44237;-71
2022/01/19 01:12:42;;;;;;;1.20;1.20;;;16.70;64.10;;;;;;5085086;28;45518;-71
2022/01/19 01:15:35;;;;;;;1.10;1.10;;;16.60;64.20;;;;;;5070497;28;45897;-70
2022/01/19 01:20:57;;;;;;;1.20;1.20;;;16.50;64.60;;;;;;5072253;28;44138;-70
2022/01/19 01:23:26;;;;;;;1.10;1.10;;;16.50;64.70;;;;;;5068254;28;47035;-71
2022/01/19 01:25:54;;;;;;;1.10;1.10;;;16.50;64.70;;;;;;5085505;28;44161;-70
2022/01/19 01:28:23;;;;;;;1.23;1.23;;;16.50;64.70;;;;;;5069003;28;44053;-71
2022/01/19 01:30:52;;;;;;;1.07;1.07;;;16.50;64.80;;;;;;5068366;28;43945;-71
2022/01/19 01:33:20;;;;;;;1.00;1.00;;;16.50;64.80;;;;;;5086788;27;43989;-71
2022/01/19 01:35:48;;;;;;;1.23;1.23;;;16.40;64.80;;;;;;5068805;28;44662;-70
2022/01/19 01:38:19;;;;;;;1.10;1.10;;;16.50;65.10;;;;;;5069123;28;43346;-71
2022/01/19 01:41:11;;;;;;;1.20;1.20;;;16.60;64.90;;;;;;5057950;28;44060;-71
2022/01/19 01:43:41;;;;;;;1.30;1.30;;;16.70;64.30;;;;;;5080069;27;44085;-71
2022/01/19 01:46:19;;;;;;;1.10;1.10;;;16.90;63.80;;;;;;5069302;28;44020;-70
2022/01/19 01:48:48;;;;;;;1.20;1.20;;;17.10;63.30;;;;;;5069705;28;44008;-70
2022/01/19 01:54:09;;;;;;;1.30;1.30;;;17.10;62.90;;;;;;5070993;28;46656;-70
2022/01/19 01:56:37;;;;;;;1.20;1.20;;;16.90;63.00;;;;;;5068435;28;45214;-71
2022/01/19 01:59:09;;;;;;;1.13;1.13;;;16.80;63.30;;;;;;5068545;28;43975;-70
2022/01/19 02:01:43;;;;;;;1.20;1.20;;;16.80;63.60;;;;;;5082556;28;43877;-70
2022/01/19 02:04:14;;;;;;;1.40;1.40;;;16.70;63.80;;;;;;5068357;28;44050;-71
2022/01/19 02:07:03;;;;;;;1.13;1.13;;;16.60;64.00;;;;;;5085061;27;43941;-70
2022/01/19 02:09:39;;;;;;;1.10;1.10;;;16.60;64.20;;;;;;5075124;28;43415;-71
2022/01/19 02:23:19;;;;;;;1.30;1.30;;;16.70;64.20;;;;;;5074397;28;43927;-70
2022/01/19 02:25:49;;;;;;;1.10;1.10;;;16.70;63.70;;;;;;5055481;28;45566;-71
2022/01/19 02:36:54;;;;;;;1.20;1.20;;;16.60;64.10;;;;;;5073725;28;45297;-71
2022/01/19 02:42:12;;;;;;;1.17;1.17;;;16.50;64.40;;;;;;5088845;28;44036;-70
2022/01/19 02:50:10;;;;;;;1.30;1.30;;;16.50;64.80;;;;;;5081314;28;43921;-70
2022/01/19 02:52:40;;;;;;;1.20;1.20;;;16.40;64.60;;;;;;5081020;28;43957;-71
2022/01/19 02:55:09;;;;;;;1.10;1.10;;;16.40;64.70;;;;;;5065161;28;43570;-71
2022/01/19 02:57:40;;;;;;;1.50;1.50;;;16.40;65.00;;;;;;5070969;28;45744;-70
2022/01/19 03:08:44;;;;;;;1.57;1.57;;;17.00;63.20;;;;;;5088541;27;45105;-70
2022/01/19 03:11:14;;;;;;;1.33;1.33;;;17.00;62.80;;;;;;5087385;28;43896;-70
2022/01/19 03:13:43;;;;;;;1.23;1.23;;;17.00;62.80;;;;;;5054112;28;43914;-70
2022/01/19 03:16:11;;;;;;;1.33;1.33;;;16.90;63.10;;;;;;5088131;28;43900;-71
2022/01/19 03:18:40;;;;;;;1.40;1.40;;;16.90;63.40;;;;;;5070490;28;44051;-71
2022/01/19 03:21:09;;;;;;;1.50;1.50;;;16.80;63.60;;;;;;5070665;28;43430;-70
2022/01/19 03:23:39;;;;;;;1.27;1.27;;;16.70;63.80;;;;;;5087031;28;43987;-71
2022/01/19 03:26:07;;;;;;;1.17;1.17;;;16.60;63.90;;;;;;5087483;28;43951;-70
2022/01/19 03:28:50;;;;;;;1.40;1.40;;;16.60;64.10;;;;;;5058028;28;44197;-70
2022/01/19 03:31:19;;;;;;;1.47;1.47;;;16.60;64.20;;;;;;5086974;28;43517;-71
2022/01/19 03:33:47;;;;;;;1.30;1.30;;;16.60;64.30;;;;;;5070338;28;43993;-71
2022/01/19 03:36:17;;;;;;;1.30;1.30;;;16.50;64.30;;;;;;5087537;28;44057;-70
2022/01/19 03:38:47;;;;;;;1.50;1.50;;;16.60;64.60;;;;;;5087100;28;46747;-71
2022/01/19 03:41:15;;;;;;;1.50;1.50;;;16.60;64.30;;;;;;5070249;28;43918;-71
2022/01/19 03:43:43;;;;;;;1.30;1.30;;;16.70;63.80;;;;;;5053610;28;44117;-70
2022/01/19 03:46:16;;;;;;;1.47;1.47;;;16.80;63.60;;;;;;5087934;28;44007;-71
2022/01/19 03:48:52;;;;;;;1.57;1.57;;;16.70;63.50;;;;;;5053480;28;45643;-71
2022/01/19 03:51:20;;;;;;;1.30;1.30;;;16.70;63.70;;;;;;5088298;27;44191;-70
2022/01/19 03:53:50;;;;;;;1.30;1.30;;;16.60;63.80;;;;;;5070267;28;43494;-71
2022/01/19 03:56:18;;;;;;;1.30;1.30;;;16.60;64.00;;;;;;5070348;28;44107;-70
2022/01/19 03:58:46;;;;;;;1.43;1.33;;;16.60;64.30;;;;;;5086614;27;43999;-71
2022/01/19 04:01:15;;;;;;;1.60;1.60;;;16.50;64.20;;;;;;5069866;28;43917;-71
2022/01/19 04:04:06;;;;;;;1.40;1.40;;;16.50;64.30;;;;;;5069928;28;43449;-70
2022/01/19 04:07:08;;;;;;;1.30;1.30;;;16.50;64.50;;;;;;5067205;28;44012;-71
2022/01/19 04:09:39;;;;;;;1.30;1.30;;;16.40;64.40;;;;;;5089058;27;44181;-69
2022/01/19 04:12:10;;;;;;;1.30;1.30;;;16.40;64.60;;;;;;5069490;28;45192;-70
2022/01/19 04:14:38;;;;;;;1.50;1.50;;;16.40;64.60;;;;;;5086198;28;43933;-70
2022/01/19 04:17:08;;;;;;;1.53;1.43;;;16.40;64.70;;;;;;5053528;28;43409;-71
2022/01/19 04:19:44;;;;;;;1.30;1.30;;;16.50;64.70;;;;;;5086498;28;45006;-71
2022/01/19 04:22:24;;;;;;;1.47;1.47;;;16.60;64.50;;;;;;5086467;28;43966;-71
2022/01/19 04:25:00;;;;;;;1.43;1.40;;;16.80;63.80;;;;;;5070439;28;43931;-70
2022/01/19 04:27:34;;;;;;;1.40;1.40;;;17.00;63.30;;;;;;5086769;28;44007;-72
2022/01/19 04:30:08;;;;;;;1.60;1.60;;;17.10;62.70;;;;;;5085075;27;44171;-71
2022/01/19 04:33:05;;;;;;;1.40;1.40;;;17.10;62.50;;;;;;5072867;28;43990;-71
2022/01/19 04:35:47;;;;;;;1.53;1.53;;;17.00;62.60;;;;;;5071729;28;43897;-71
2022/01/19 04:44:29;;;;;;;1.50;1.50;;;16.80;63.50;;;;;;5071423;28;44059;-71
2022/01/19 05:04:10;;;;;;;1.50;1.50;;;16.70;63.90;;;;;;5072948;28;46283;-71
2022/01/19 05:07:11;;;;;;;1.23;1.23;;;16.80;63.50;;;;;;5085332;28;44047;-70
2022/01/19 05:15:21;;;;;;;1.50;1.50;;;16.60;63.80;;;;;;5071576;28;44952;-70
2022/01/19 05:17:49;;;;;;;1.50;1.50;;;16.60;64.00;;;;;;5085749;28;45473;-69
2022/01/19 05:20:18;;;;;;;1.50;1.50;;;16.50;64.00;;;;;;5069031;28;43802;-70
2022/01/19 05:22:46;;;;;;;1.43;1.43;;;16.50;64.20;;;;;;5069027;28;43693;-71
2022/01/19 05:25:18;;;;;;;1.60;1.60;;;16.50;64.30;;;;;;5085893;28;43959;-71
2022/01/19 05:27:52;;;;;;;1.40;1.40;;;16.40;64.30;;;;;;5070162;28;43992;-71
2022/01/19 05:30:22;;;;;;;1.40;1.40;;;16.40;64.40;;;;;;5084900;28;43916;-71
2022/01/19 05:32:50;;;;;;;1.60;1.60;;;16.40;64.50;;;;;;5085988;28;44031;-72
2022/01/19 05:35:19;;;;;;;1.70;1.70;;;16.40;64.50;;;;;;5068763;28;44995;-70
2022/01/19 05:37:58;;;;;;;1.60;1.60;;;16.40;64.60;;;;;;5064681;28;44405;-71
2022/01/19 05:40:39;;;;;;;1.40;1.40;;;16.50;64.50;;;;;;5070275;28;43961;-70
2022/01/19 05:43:07;;;;;;;1.60;1.60;;;16.60;64.10;;;;;;5087678;28;43722;-70
2022/01/19 05:45:37;;;;;;;1.50;1.50;;;16.80;63.60;;;;;;5071993;28;44009;-70
2022/01/19 05:48:14;;;;;;;1.60;1.50;;;17.00;63.10;;;;;;5088812;28;43857;-71
2022/01/19 05:50:48;;;;;;;1.67;1.67;;;17.00;62.50;;;;;;5088786;28;43921;-70
2022/01/19 05:53:20;;;;;;;1.50;1.50;;;17.00;62.40;;;;;;5073014;28;44053;-70
2022/01/19 05:55:48;;;;;;;1.40;1.30;;;16.90;62.60;;;;;;5072122;28;45369;-71
2022/01/19 05:58:16;;;;;;;1.50;1.50;;;16.90;63.00;;;;;;5088720;28;43335;-71
2022/01/19 06:00:49;;;;;;;1.27;1.27;;;16.80;63.20;;;;;;5055993;28;43901;-70
2022/01/19 06:03:18;;;;;;;1.50;1.50;;;16.70;63.30;;;;;;5083173;28;44134;-71
2022/01/19 06:06:03;;;;;;;1.50;1.50;;;16.70;63.50;;;;;;5070308;28;43950;-71
2022/01/19 06:09:08;;;;;;;1.60;1.60;;;16.60;63.60;;;;;;5076118;28;43377;-70
2022/01/19 06:11:37;;;;;;;1.60;1.60;;;16.60;63.80;;;;;;5055789;28;43977;-71
2022/01/19 06:14:06;;;;;;;1.60;1.60;;;16.60;63.80;;;;;;5071901;28;44242;-71
2022/01/19 06:16:36;;;;;;;1.50;1.50;;;16.60;64.00;;;;;;5088044;28;45720;-70
2022/01/19 06:19:04;;;;;;;1.50;1.50;;;16.60;64.10;;;;;;5055146;28;43967;-71
2022/01/19 06:21:32;;;;;;;1.50;1.50;;;16.60;63.90;;;;;;5071515;28;44002;-70
2022/01/19 06:24:02;;;;;;;1.40;1.40;;;16.70;63.50;;;;;;5071653;28;44114;-69
2022/01/19 06:26:31;;;;;;;1.63;1.63;;;16.80;63.20;;;;;;5071390;28;45025;-70
2022/01/19 06:28:59;;;;;;;1.70;1.60;;;16.80;63.10;;;;;;5071391;28;45601;-70
2022/01/19 06:31:28;;;;;;;1.40;1.40;;;16.70;63.20;;;;;;5087917;28;43997;-70
2022/01/19 06:34:03;;;;;;;1.30;1.30;;;16.70;63.30;;;;;;5072463;28;43944;-71
2022/01/19 06:36:52;;;;;;;1.43;1.43;;;16.70;63.50;;;;;;5074264;28;44044;-71
2022/01/19 06:39:43;;;;;;;1.80;1.70;;;16.60;63.70;;;;;;5089599;27;43959;-70
2022/01/19 06:42:11;;;;;;;1.77;1.67;;;16.60;63.80;;;;;;5071373;28;43382;-71
2022/01/19 06:44:41;;;;;;;1.60;1.60;;;16.50;63.90;;;;;;5071680;28;44098;-70
2022/01/19 06:47:10;;;;;;;1.73;1.70;;;16.50;64.00;;;;;;5087763;28;43972;-71
2022/01/19 06:49:40;;;;;;;1.80;1.70;;;16.50;64.10;;;;;;5054386;28;43983;-70
2022/01/19 06:52:11;;;;;;;1.60;1.60;;;16.40;64.00;;;;;;5071546;28;43934;-71
2022/01/19 06:54:39;;;;;;;1.60;1.60;;;16.40;64.10;;;;;;5070915;28;43940;-71
2022/01/19 06:57:08;;;;;;;1.50;1.50;;;16.40;64.20;;;;;;5087768;28;44008;-71
2022/01/19 06:59:58;;;;;;;1.87;1.77;;;16.40;64.50;;;;;;5088805;27;43996;-71
2022/01/19 07:02:58;;;;;;;1.80;1.70;;;16.50;64.10;;;;;;5046546;28;43393;-70
2022/01/19 07:05:46;;;;;;;1.80;1.80;;;16.70;63.50;;;;;;5085712;28;43943;-70
2022/01/19 07:08:35;;;;;;;1.70;1.70;;;16.90;62.90;;;;;;5073910;28;44037;-71
2022/01/19 07:11:04;;;;;;;1.70;1.70;;;17.00;62.40;;;;;;5070403;28;44455;-70
2022/01/19 07:13:33;;;;;;;1.70;1.70;;;16.90;62.20;;;;;;5070878;28;44119;-71
2022/01/19 07:16:02;;;;;;;1.67;1.67;;;16.90;62.60;;;;;;5089361;27;43420;-70
2022/01/19 07:18:30;;;;;;;1.90;1.90;;;16.90;62.90;;;;;;5087136;28;45681;-70
2022/01/19 07:21:02;;;;;;;1.93;1.83;;;16.80;63.10;;;;;;5054468;28;44036;-70
2022/01/19 07:23:45;;;;;;;2.00;1.90;;;16.70;63.30;;;;;;5058316;28;43423;-70
2022/01/19 07:26:15;;;;;;;1.83;1.83;;;16.70;63.50;;;;;;5071386;28;44114;-70
2022/01/19 07:28:43;;;;;;;1.97;1.97;;;16.60;63.60;;;;;;5087103;28;46496;-71
2022/01/19 07:31:12;;;;;;;1.83;1.80;;;16.60;63.80;;;;;;5039805;28;43997;-71
2022/01/19 07:33:42;;;;;;;1.70;1.70;;;16.60;63.90;;;;;;5064018;28;43989;-71
2022/01/19 07:36:15;;;;;;;1.73;1.73;;;16.50;63.90;;;;;;5064785;28;44193;-71
2022/01/19 07:38:43;;;;;;;1.97;1.97;;;16.50;64.00;;;;;;5081821;27;46820;-70
2022/01/19 07:41:12;;;;;;;2.07;2.00;;;16.60;64.00;;;;;;5070356;28;43777;-70
2022/01/19 07:43:47;;;;;;;2.13;1.93;;;16.70;63.50;;;;;;5071364;28;43367;-71
2022/01/19 07:46:42;;;;;;;2.17;2.07;;;16.80;63.10;;;;;;5086941;27;44018;-70
2022/01/19 07:49:28;;;;;;;3.87;2.80;;;16.80;63.20;;;;;;5072925;28;45711;-70
2022/01/19 07:52:16;;;;;;;3.77;3.30;;;16.70;63.30;;;;;;5083909;28;43904;-70
2022/01/19 07:54:58;;;;;;;3.90;3.27;;;16.60;63.40;;;;;;5057216;28;44003;-70
2022/01/19 07:57:51;;;;;;;4.50;3.73;;;16.60;63.60;;;;;;5073830;28;44075;-71
2022/01/19 08:00:46;;;;;;;10.00;4.70;;;16.60;63.70;;;;;;5062742;28;44030;-70
2022/01/19 08:03:40;;;;;;;7.23;4.60;;;16.50;63.80;;;;;;5086873;28;44017;-71
2022/01/19 08:06:15;;;;;;;10.63;5.30;;;16.50;64.00;;;;;;5054243;28;44020;-70
2022/01/19 08:08:46;;;;;;;8.63;4.77;;;16.50;64.10;;;;;;5070653;28;44169;-70
2022/01/19 08:11:15;;;;;;;9.00;5.20;;;16.40;64.10;;;;;;5069908;28;44036;-70
2022/01/19 08:13:47;;;;;;;10.00;5.50;;;16.40;64.10;;;;;;5070965;28;43890;-70
2022/01/19 08:16:16;;;;;;;12.33;5.67;;;16.40;64.20;;;;;;5070048;28;43948;-70
2022/01/19 08:18:45;;;;;;;15.53;6.03;;;16.40;64.40;;;;;;5070425;28;43916;-70
2022/01/19 08:21:17;;;;;;;13.80;6.43;;;16.50;64.30;;;;;;5070258;28;44011;-70
2022/01/19 08:23:55;;;;;;;14.37;5.97;;;16.60;63.80;;;;;;5070917;28;43923;-71
2022/01/19 08:26:23;;;;;;;13.77;6.37;;;16.80;63.30;;;;;;5086537;27;44004;-71
2022/01/19 08:28:55;;;;;;;15.03;6.33;;;17.00;62.90;;;;;;5086971;28;43970;-70
2022/01/19 08:31:24;;;;;;;12.67;6.03;;;17.00;62.40;;;;;;5085840;28;45940;-71
2022/01/19 08:34:29;;;;;;;8.73;5.80;;;16.90;62.30;;;;;;5086493;28;44004;-70
2022/01/19 08:37:21;;;;;;;8.63;5.23;;;16.90;62.70;;;;;;5075178;28;43903;-70
2022/01/19 08:39:58;;;;;;;10.63;5.53;;;16.80;62.90;;;;;;5055368;28;43969;-71
2022/01/19 08:42:26;;;;;;;9.37;5.90;;;16.70;63.10;;;;;;5069519;28;45452;-71
2022/01/19 08:44:55;;;;;;;10.60;5.93;;;16.70;63.40;;;;;;5069170;28;44012;-70
2022/01/19 08:47:27;;;;;;;10.23;5.97;;;16.60;63.50;;;;;;5070227;28;43352;-70
2022/01/19 08:50:07;;;;;;;9.70;6.17;;;16.60;63.60;;;;;;5056289;28;43965;-71
2022/01/19 08:52:43;;;;;;;12.43;6.77;;;16.50;63.60;;;;;;5064805;28;44995;-71
2022/01/19 08:55:22;;;;;;;11.43;6.50;;;16.50;63.70;;;;;;5070670;28;43985;-71
2022/01/19 08:57:51;;;;;;;16.87;7.00;;;16.50;63.90;;;;;;5069538;28;43884;-71
2022/01/19 09:00:22;;;;;;;13.83;6.33;;;16.50;64.50;;;;;;5069854;28;44231;-71
2022/01/19 09:02:51;;;;;;;10.77;6.33;;;16.60;63.60;;;;;;5069248;28;43992;-70
2022/01/19 09:05:19;;;;;;;10.10;6.47;;;16.70;63.20;;;;;;5069174;28;44102;-70
2022/01/19 09:07:48;;;;;;;10.83;6.17;;;16.70;62.90;;;;;;5053130;28;44277;-71
2022/01/19 09:10:17;;;;;;;9.70;6.53;;;16.70;63.10;;;;;;5069835;28;43877;-70
2022/01/19 09:12:46;;;;;;;10.67;6.70;;;16.60;63.30;;;;;;5068726;28;44897;-71
2022/01/19 09:15:17;;;;;;;11.60;6.47;;;16.60;63.50;;;;;;5085598;27;43807;-71
2022/01/19 09:17:46;;;;;;;9.33;6.47;;;16.60;63.70;;;;;;5069365;28;43898;-70
2022/01/19 09:20:15;;;;;;;8.00;6.40;;;16.50;63.80;;;;;;5069450;28;44025;-70
2022/01/19 09:22:43;;;;;;;12.73;6.63;;;16.50;63.90;;;;;;5085504;28;43846;-71
2022/01/19 09:25:11;;;;;;;9.80;6.57;;;16.50;64.10;;;;;;5068572;28;43989;-70
2022/01/19 09:27:39;;;;;;;10.77;7.00;;;16.40;64.80;;;;;;5085521;28;44043;-70
2022/01/19 09:30:11;;;;;;;10.73;7.00;;;16.40;64.20;;;;;;5068367;28;44236;-71
2022/01/19 09:32:40;;;;;;;9.13;6.20;;;16.40;64.30;;;;;;5085264;28;46069;-71
2022/01/19 09:35:10;;;;;;;9.73;6.50;;;16.40;64.30;;;;;;5085211;28;45047;-70
2022/01/19 09:37:39;;;;;;;10.27;6.90;;;16.40;64.60;;;;;;5086623;27;44036;-70
2022/01/19 09:40:27;;;;;;;9.37;6.43;;;16.50;65.30;;;;;;5071821;28;43864;-71
2022/01/19 09:43:05;;;;;;;8.67;6.23;;;16.60;64.00;;;;;;5085568;28;43990;-72
2022/01/19 09:45:35;;;;;;;8.63;6.20;;;16.80;63.50;;;;;;5068968;28;44320;-71
2022/01/19 09:48:04;;;;;;;8.00;5.90;;;17.00;63.00;;;;;;5069394;28;43376;-70
2022/01/19 09:50:33;;;;;;;7.80;6.07;;;17.00;62.60;;;;;;5069041;28;43964;-71
2022/01/19 09:53:04;;;;;;;7.50;6.13;;;17.00;62.50;;;;;;5068319;28;44681;-71
2022/01/19 09:55:33;;;;;;;7.20;6.13;;;16.90;62.60;;;;;;5084748;28;43437;-70
2022/01/19 09:58:01;;;;;;;10.13;6.67;;;16.90;62.90;;;;;;5078887;28;43367;-70
2022/01/19 10:00:30;;;;;;;7.03;6.20;;;16.80;63.10;;;;;;5059075;28;43993;-71
2022/01/19 10:03:17;;;;;;;6.83;5.53;;;16.70;63.30;;;;;;5086430;27;44037;-70
2022/01/19 10:06:02;;;;;;;9.13;6.13;;;16.60;63.50;;;;;;5084840;28;44045;-71
2022/01/19 10:08:33;;;;;;;7.53;5.93;;;16.60;63.80;;;;;;5068619;28;43924;-70
2022/01/19 10:11:12;;;;;;;6.27;5.53;;;16.60;63.90;;;;;;5068551;28;43931;-71
2022/01/19 10:19:19;;;;;;;6.60;6.03;;;16.50;64.60;;;;;;5070803;28;44017;-70
2022/01/19 10:21:57;;;;;;;7.83;6.20;;;16.60;64.40;;;;;;5086611;28;43938;-71
2022/01/19 10:24:48;;;;;;;6.37;5.77;;;16.60;63.80;;;;;;5051212;28;44021;-71
2022/01/19 10:27:29;;;;;;;7.43;5.83;;;16.70;63.60;;;;;;5068563;27;43966;-70
2022/01/19 10:30:31;;;;;;;6.33;5.70;;;16.60;63.70;;;;;;5087439;28;44018;-70
2022/01/19 10:33:02;;;;;;;5.80;5.30;;;16.60;63.90;;;;;;5030113;28;44025;-71
2022/01/19 10:35:33;;;;;;;6.77;5.93;;;16.50;64.10;;;;;;5029666;28;45849;-71
2022/01/19 10:38:14;;;;;;;6.70;6.10;;;16.50;64.30;;;;;;5039947;28;44710;-70
2022/01/19 10:40:44;;;;;;;6.10;5.50;;;16.50;65.20;;;;;;5065593;27;43954;-70
2022/01/19 10:43:29;;;;;;;6.53;5.93;;;16.40;64.50;;;;;;5071714;28;44094;-71
2022/01/19 10:45:58;;;;;;;6.03;5.50;;;16.40;64.60;;;;;;5083314;27;44111;-70
2022/01/19 10:48:35;;;;;;;6.47;5.90;;;16.40;64.60;;;;;;5071286;28;45005;-71
2022/01/19 10:51:12;;;;;;;6.67;6.10;;;16.40;64.70;;;;;;5071512;28;44020;-71
2022/01/19 10:53:42;;;;;;;5.97;5.47;;;16.40;64.60;;;;;;5071216;28;43908;-70
2022/01/19 10:56:32;;;;;;;5.97;5.43;;;16.40;64.70;;;;;;5071108;28;45047;-71
2022/01/19 10:59:02;;;;;;;5.80;5.30;;;16.40;65.00;;;;;;5066167;28;44122;-70
2022/01/19 11:01:35;;;;;;;5.83;5.27;;;16.50;64.80;;;;;;5088127;28;43370;-71
2022/01/19 11:04:24;;;;;;;5.87;5.37;;;16.60;64.40;;;;;;5071399;28;44105;-71
2022/01/19 11:06:55;;;;;;;6.27;5.80;;;16.80;63.80;;;;;;5087711;28;44042;-71
2022/01/19 11:09:27;;;;;;;5.90;5.40;;;16.90;63.50;;;;;;5070871;28;43926;-70
2022/01/19 11:11:56;;;;;;;5.87;5.43;;;16.90;63.10;;;;;;5088081;27;43913;-71
2022/01/19 11:14:26;;;;;;;5.63;5.23;;;16.80;63.20;;;;;;5064503;28;43917;-70
2022/01/19 11:16:54;;;;;;;5.50;5.13;;;16.80;63.40;;;;;;5064441;28;44718;-70
2022/01/19 11:19:23;;;;;;;5.40;5.10;;;16.70;63.70;;;;;;5087472;28;44049;-72
2022/01/19 11:22:14;;;;;;;5.43;5.10;;;16.60;63.80;;;;;;5087952;28;43987;-71
2022/01/19 11:24:51;;;;;;;6.00;5.50;;;16.60;64.10;;;;;;5087763;28;44115;-70
2022/01/19 11:27:20;;;;;;;5.70;5.30;;;16.50;64.20;;;;;;5087735;27;44027;-71
2022/01/19 11:30:12;;;;;;;5.50;5.17;;;16.50;64.40;;;;;;5070005;28;44306;-71
2022/01/19 11:32:40;;;;;;;5.60;5.20;;;16.40;64.50;;;;;;5070486;28;44017;-71
2022/01/19 11:35:08;;;;;;;5.50;5.10;;;16.40;64.60;;;;;;5087310;28;43944;-70
2022/01/19 11:37:39;;;;;;;5.67;5.27;;;16.40;64.80;;;;;;5070621;28;44003;-70
2022/01/19 11:40:10;;;;;;;5.47;5.17;;;16.40;64.80;;;;;;5085488;27;44593;-71
2022/01/19 11:42:39;;;;;;;6.00;5.40;;;16.50;64.50;;;;;;5087172;28;43915;-70
2022/01/19 11:45:08;;;;;;;4.90;4.60;;;16.60;64.10;;;;;;5070729;28;43889;-70
2022/01/19 11:47:42;;;;;;;5.43;5.03;;;16.50;64.00;;;;;;5053591;28;43819;-72
2022/01/19 11:50:15;;;;;;;5.37;5.00;;;16.50;64.20;;;;;;5070768;28;44063;-70
2022/01/19 11:53:08;;;;;;;5.27;4.97;;;16.50;64.40;;;;;;5070810;28;43991;-71
2022/01/19 11:55:37;;;;;;;5.50;5.20;;;16.50;65.20;;;;;;5087112;28;43969;-71
2022/01/19 11:58:13;;;;;;;5.70;5.30;;;16.40;64.60;;;;;;5070292;28;43883;-70
2022/01/19 12:00:41;;;;;;;6.23;5.83;;;16.40;64.60;;;;;;5070080;28;44063;-70
2022/01/19 12:03:21;;;;;;;5.53;5.00;;;16.40;64.70;;;;;;5087110;28;44062;-70
2022/01/19 12:06:09;;;;;;;5.43;5.13;;;16.40;64.80;;;;;;5073664;28;43730;-70
2022/01/19 12:08:39;;;;;;;5.27;4.97;;;16.30;64.80;;;;;;5080125;28;44646;-71
2022/01/19 12:11:16;;;;;;;5.50;5.10;;;16.30;64.80;;;;;;5080205;28;43929;-71
2022/01/19 12:16:56;;;;;;;5.47;5.17;;;16.30;65.00;;;;;;5087690;28;43969;-70
2022/01/19 12:19:27;;;;;;;5.70;5.30;;;16.40;65.20;;;;;;5071932;28;44032;-70
2022/01/19 12:22:05;;;;;;;6.10;5.60;;;16.50;64.80;;;;;;5086539;27;43502;-70
2022/01/19 12:24:38;;;;;;;7.10;5.43;;;16.70;63.80;;;;;;5070973;28;43990;-71
2022/01/19 12:27:10;;;;;;;10.47;5.70;;;16.80;63.40;;;;;;5086834;28;43479;-71
2022/01/19 12:30:05;;;;;;;7.77;5.37;;;16.80;63.70;;;;;;5085943;28;44048;-71
2022/01/19 12:32:35;;;;;;;11.67;5.27;;;16.80;63.10;;;;;;5069671;28;43978;-71
2022/01/19 12:35:15;;;;;;;5.73;5.23;;;16.70;63.30;;;;;;5087619;27;44024;-70
2022/01/19 12:37:45;;;;;;;6.77;5.63;;;16.60;63.60;;;;;;5069882;28;44112;-72
2022/01/19 12:40:35;;;;;;;10.40;5.30;;;16.60;63.90;;;;;;5069506;28;45339;-71
2022/01/19 12:43:05;;;;;;;9.87;5.63;;;16.50;64.00;;;;;;5086215;28;43982;-71
2022/01/19 12:45:34;;;;;;;5.90;5.40;;;16.40;64.10;;;;;;5086247;27;43807;-71
2022/01/19 12:48:03;;;;;;;5.80;5.30;;;16.40;64.30;;;;;;5069971;28;44481;-70
2022/01/19 12:50:44;;;;;;;5.30;4.93;;;16.40;64.50;;;;;;5079136;27;45140;-70
2022/01/19 12:53:21;;;;;;;6.90;5.30;;;16.40;64.60;;;;;;5086068;28;43979;-71
2022/01/19 12:55:53;;;;;;;8.20;5.53;;;16.30;65.30;;;;;;5070083;28;43998;-70
2022/01/19 12:58:28;;;;;;;9.53;5.73;;;16.30;64.80;;;;;;5086724;28;43934;-70
2022/01/19 13:01:04;;;;;;;6.23;5.63;;;16.50;64.70;;;;;;5085228;28;44023;-70
2022/01/19 13:03:35;;;;;;;8.80;6.03;;;16.50;64.00;;;;;;5086449;28;44025;-71
2022/01/19 13:06:05;;;;;;;6.50;6.00;;;16.50;63.70;;;;;;5062816;28;44023;-70
2022/01/19 13:08:39;;;;;;;5.73;5.27;;;16.50;63.80;;;;;;5063361;28;43538;-70
2022/01/19 13:11:24;;;;;;;5.70;5.30;;;16.50;64.00;;;;;;5080010;28;44062;-71
2022/01/19 13:13:58;;;;;;;6.10;5.60;;;16.50;64.10;;;;;;5070189;28;43877;-70
2022/01/19 13:16:36;;;;;;;6.67;6.03;;;16.40;64.30;;;;;;5052400;28;43899;-71
2022/01/19 13:19:11;;;;;;;6.60;6.10;;;16.40;64.50;;;;;;5069786;28;43867;-70
2022/01/19 13:21:40;;;;;;;6.30;5.80;;;16.30;64.50;;;;;;5052041;28;46174;-71
2022/01/19 13:24:13;;;;;;;5.80;5.30;;;16.30;64.50;;;;;;5069038;28;43735;-70
2022/01/19 13:26:50;;;;;;;6.70;6.10;;;16.30;64.70;;;;;;5079688;28;43991;-70
2022/01/19 13:29:26;;;;;;;6.87;6.37;;;16.30;64.80;;;;;;5069570;28;43970;-70
2022/01/19 13:32:00;;;;;;;6.30;5.83;;;16.30;64.80;;;;;;5085456;28;45034;-71
2022/01/19 13:34:29;;;;;;;6.00;5.50;;;16.30;64.90;;;;;;5086743;27;43769;-70
2022/01/19 13:36:59;;;;;;;6.43;5.93;;;16.30;65.20;;;;;;5052270;28;43357;-71
2022/01/19 13:39:28;;;;;;;6.27;5.77;;;16.30;65.40;;;;;;5069492;28;44041;-69
2022/01/19 13:42:00;;;;;;;5.67;5.13;;;16.50;65.10;;;;;;5085296;28;44268;-70
2022/01/19 13:44:33;;;;;;;6.33;5.83;;;16.60;64.70;;;;;;5086556;27;43986;-71
2022/01/19 13:47:25;;;;;;;6.63;6.13;;;16.80;64.20;;;;;;5069704;28;43382;-71
2022/01/19 13:49:53;;;;;;;6.00;5.60;;;16.80;63.70;;;;;;5085614;28;44294;-71
2022/01/19 13:52:23;;;;;;;5.67;5.27;;;16.80;63.40;;;;;;5068831;28;43685;-70
2022/01/19 13:54:52;;;;;;;5.60;5.10;;;16.70;63.70;;;;;;5068317;28;44104;-70
2022/01/19 13:57:28;;;;;;;6.23;5.80;;;16.60;63.90;;;;;;5068694;28;43421;-70
2022/01/19 14:00:09;;;;;;;6.17;5.67;;;16.60;64.10;;;;;;5085403;28;44037;-70
2022/01/19 14:02:38;;;;;;;6.00;5.60;;;16.50;64.50;;;;;;5086461;27;45119;-70
2022/01/19 14:05:37;;;;;;;6.40;5.93;;;16.50;64.60;;;;;;5090056;28;43935;-70
2022/01/19 14:08:05;;;;;;;5.47;5.07;;;16.40;64.70;;;;;;5089135;28;44069;-70
2022/01/19 14:10:43;;;;;;;6.27;5.87;;;16.40;64.90;;;;;;5072083;28;43601;-70
2022/01/19 14:13:31;;;;;;;6.50;5.93;;;16.40;64.90;;;;;;5071348;28;44096;-71
2022/01/19 14:16:23;;;;;;;6.00;5.60;;;16.30;65.00;;;;;;5049547;28;44045;-71
2022/01/19 14:19:08;;;;;;;6.23;5.83;;;16.40;65.50;;;;;;5085335;27;43937;-70
2022/01/19 14:21:51;;;;;;;5.90;5.50;;;16.40;65.20;;;;;;5055578;28;43984;-70
2022/01/19 14:24:19;;;;;;;5.80;5.30;;;16.50;64.70;;;;;;5088560;28;44038;-70
2022/01/19 14:26:51;;;;;;;5.77;5.37;;;16.50;64.50;;;;;;5071904;28;44005;-70
2022/01/19 14:29:21;;;;;;;6.37;5.97;;;16.50;64.70;;;;;;5071807;28;44080;-70
2022/01/19 14:31:50;;;;;;;6.57;6.07;;;16.50;64.90;;;;;;5088507;28;43986;-71
2022/01/19 14:34:34;;;;;;;6.03;5.70;;;16.40;65.00;;;;;;5088697;28;43828;-71
2022/01/19 14:37:13;;;;;;;5.80;5.40;;;16.40;65.00;;;;;;5089724;27;43914;-70
2022/01/19 14:39:49;;;;;;;6.10;5.70;;;16.30;65.10;;;;;;5071564;28;44141;-70